createdAt,value
2022-11-27T00:01:14.707Z,0.51
2022-11-27T00:03:42.068Z,0.49
2022-11-27T00:06:13.025Z,0.50
2022-11-27T00:08:39.827Z,0.42
2022-11-27T00:11:11.334Z,0.40
2022-11-27T00:13:37.853Z,0.27
2022-11-27T00:16:05.924Z,0.40
2022-11-27T00:18:32.895Z,0.35
2022-11-27T00:21:04.834Z,0.35
2022-11-27T00:23:32.972Z,0.25
2022-11-27T00:25:59.520Z,0.31
2022-11-27T00:28:26.097Z,0.28
2022-11-27T00:30:52.612Z,0.45
2022-11-27T00:33:19.292Z,0.58
2022-11-27T00:35:45.944Z,0.50
2022-11-27T00:38:12.472Z,0.38
2022-11-27T00:40:38.952Z,0.33
2022-11-27T00:43:05.636Z,0.38
2022-11-27T00:45:32.101Z,0.41
2022-11-27T00:47:58.643Z,0.43
2022-11-27T00:50:25.166Z,0.51
2022-11-27T00:52:51.780Z,0.48
2022-11-27T00:55:18.512Z,0.42
2022-11-27T00:57:45.364Z,0.52
2022-11-27T01:00:12.569Z,0.41
2022-11-27T01:02:39.108Z,0.47
2022-11-27T01:05:06.138Z,0.47
2022-11-27T01:07:32.665Z,0.38
2022-11-27T01:09:59.215Z,0.40
2022-11-27T01:12:25.725Z,0.44
2022-11-27T01:14:52.186Z,0.38
2022-11-27T01:17:18.665Z,0.32
2022-11-27T01:19:45.166Z,0.57
2022-11-27T01:22:11.737Z,0.40
2022-11-27T01:24:38.794Z,0.41
2022-11-27T01:27:05.487Z,0.37
2022-11-27T01:29:32.019Z,0.37
2022-11-27T01:31:58.588Z,0.41
2022-11-27T01:34:25.164Z,0.64
2022-11-27T01:36:51.799Z,0.62
2022-11-27T01:39:20.813Z,0.73
2022-11-27T01:41:48.721Z,0.58
2022-11-27T01:44:24.091Z,0.54
2022-11-27T01:46:58.449Z,0.57
2022-11-27T01:49:28.193Z,0.50
2022-11-27T01:52:06.566Z,0.52
2022-11-27T01:54:55.207Z,0.39
2022-11-27T01:57:25.474Z,0.32
2022-11-27T01:59:55.017Z,0.38
2022-11-27T02:02:21.552Z,0.48
2022-11-27T02:04:48.363Z,0.43
2022-11-27T02:07:15.127Z,0.35
2022-11-27T02:09:42.190Z,0.36
2022-11-27T02:12:27.640Z,0.40
2022-11-27T02:15:11.365Z,0.37
2022-11-27T02:17:41.604Z,0.39
2022-11-27T02:20:21.763Z,0.38
2022-11-27T02:23:09.855Z,0.42
2022-11-27T02:25:59.465Z,0.40
2022-11-27T02:28:43.068Z,0.38
2022-11-27T02:31:18.767Z,0.38
2022-11-27T02:33:54.247Z,0.48
2022-11-27T02:36:29.735Z,0.37
2022-11-27T02:39:05.206Z,0.33
2022-11-27T02:41:44.048Z,0.34
2022-11-27T02:44:11.533Z,0.35
2022-11-27T02:46:40.058Z,0.34
2022-11-27T02:49:12.133Z,0.47
2022-11-27T02:51:44.760Z,0.40
2022-11-27T02:54:18.342Z,0.39
2022-11-27T02:56:48.217Z,0.37
2022-11-27T02:59:17.635Z,0.43
2022-11-27T03:04:14.344Z,0.40
2022-11-27T03:06:46.096Z,0.41
2022-11-27T03:09:18.828Z,0.49
2022-11-27T03:11:46.089Z,0.51
2022-11-27T03:14:13.941Z,0.49
2022-11-27T03:16:55.091Z,0.41
2022-11-27T03:19:35.299Z,0.45
2022-11-27T03:22:04.806Z,0.48
2022-11-27T03:24:34.124Z,0.43
2022-11-27T03:27:00.904Z,0.41
2022-11-27T03:29:50.878Z,0.37
2022-11-27T03:32:18.094Z,0.40
2022-11-27T03:34:45.698Z,0.43
2022-11-27T03:37:12.326Z,0.42
2022-11-27T03:39:39.404Z,0.40
2022-11-27T03:42:18.536Z,0.42
2022-11-27T03:45:01.125Z,0.45
2022-11-27T03:47:40.166Z,0.44
2022-11-27T03:50:16.489Z,0.42
2022-11-27T03:53:10.875Z,0.47
2022-11-27T03:55:43.362Z,0.43
2022-11-27T03:58:23.278Z,0.45
2022-11-27T04:00:52.442Z,0.46
2022-11-27T04:03:27.564Z,0.44
2022-11-27T04:05:54.323Z,0.38
2022-11-27T04:08:20.930Z,0.37
2022-11-27T04:10:47.741Z,0.42
2022-11-27T04:13:14.620Z,0.45
2022-11-27T04:15:42.265Z,0.43
2022-11-27T04:18:09.008Z,0.50
2022-11-27T04:20:35.547Z,0.47
2022-11-27T04:23:03.116Z,0.50
2022-11-27T04:25:29.845Z,0.47
2022-11-27T04:27:56.528Z,0.49
2022-11-27T04:30:23.074Z,0.49
2022-11-27T04:32:49.654Z,0.51
2022-11-27T04:35:16.246Z,0.57
2022-11-27T04:37:42.794Z,0.50
2022-11-27T04:40:09.915Z,0.55
2022-11-27T04:42:36.625Z,0.55
2022-11-27T04:45:03.327Z,0.53
2022-11-27T04:47:30.293Z,0.51
2022-11-27T04:49:56.802Z,0.47
2022-11-27T04:52:23.329Z,0.43
2022-11-27T04:54:49.809Z,0.45
2022-11-27T04:57:16.470Z,0.53
2022-11-27T04:59:42.954Z,0.53
2022-11-27T05:02:09.614Z,0.47
2022-11-27T05:04:36.102Z,0.53
2022-11-27T05:07:02.576Z,0.61
2022-11-27T05:09:29.095Z,0.69
2022-11-27T05:11:55.607Z,0.73
2022-11-27T05:14:27.034Z,0.64
2022-11-27T05:16:55.166Z,0.58
2022-11-27T05:19:23.478Z,0.64
2022-11-27T05:21:50.912Z,0.66
2022-11-27T05:24:20.289Z,0.56
2022-11-27T05:26:47.563Z,0.65
2022-11-27T05:29:14.933Z,0.64
2022-11-27T05:31:42.037Z,0.62
2022-11-27T05:34:09.130Z,0.73
2022-11-27T05:36:36.099Z,0.81
2022-11-27T05:39:04.718Z,0.91
2022-11-27T05:41:31.213Z,0.85
2022-11-27T05:43:57.734Z,0.72
2022-11-27T05:46:24.252Z,0.68
2022-11-27T05:48:50.906Z,0.78
2022-11-27T05:51:18.511Z,0.71
2022-11-27T05:53:45.421Z,0.77
2022-11-27T05:56:15.074Z,0.72
2022-11-27T05:58:43.244Z,0.58
2022-11-27T06:01:11.133Z,0.68
2022-11-27T06:03:39.240Z,0.63
2022-11-27T06:06:10.866Z,0.71
2022-11-27T06:08:38.572Z,0.66
2022-11-27T06:11:12.945Z,0.69
2022-11-27T06:13:40.165Z,0.70
2022-11-27T06:16:15.151Z,0.82
2022-11-27T06:18:41.889Z,0.81
2022-11-27T06:21:10.089Z,0.77
2022-11-27T06:23:37.391Z,0.67
2022-11-27T06:26:15.763Z,0.78
2022-11-27T06:28:43.025Z,0.75
2022-11-27T06:31:17.306Z,0.79
2022-11-27T06:33:45.897Z,0.85
2022-11-27T06:36:12.478Z,0.79
2022-11-27T06:38:39.384Z,0.77
2022-11-27T06:41:08.771Z,0.80
2022-11-27T06:43:36.089Z,1.00
2022-11-27T06:46:04.934Z,0.90
2022-11-27T06:48:32.583Z,0.99
2022-11-27T06:51:03.534Z,1.02
2022-11-27T06:53:30.589Z,1.12
2022-11-27T06:55:57.464Z,1.16
2022-11-27T06:58:29.410Z,1.21
2022-11-27T07:00:59.294Z,1.26
2022-11-27T07:03:26.486Z,1.22
2022-11-27T07:05:53.410Z,1.15
2022-11-27T07:08:20.066Z,1.27
2022-11-27T07:10:46.668Z,1.24
2022-11-27T07:13:13.176Z,1.37
2022-11-27T07:15:39.947Z,1.34
2022-11-27T07:18:06.466Z,1.40
2022-11-27T07:20:32.994Z,1.39
2022-11-27T07:22:59.456Z,1.48
2022-11-27T07:25:26.175Z,1.41
2022-11-27T07:27:52.789Z,1.36
2022-11-27T07:30:19.345Z,1.40
2022-11-27T07:32:45.852Z,1.39
2022-11-27T07:35:12.412Z,1.52
2022-11-27T07:37:38.979Z,1.50
2022-11-27T07:40:06.663Z,1.57
2022-11-27T07:42:38.320Z,1.58
2022-11-27T07:45:07.367Z,1.59
2022-11-27T07:47:33.873Z,1.64
2022-11-27T07:50:00.594Z,1.73
2022-11-27T07:52:27.663Z,1.72
2022-11-27T07:54:54.449Z,1.60
2022-11-27T07:57:21.415Z,1.68
2022-11-27T07:59:48.139Z,1.64
2022-11-27T08:02:15.175Z,1.77
2022-11-27T08:04:42.050Z,1.77
2022-11-27T08:07:08.850Z,1.77
2022-11-27T08:09:35.342Z,1.79
2022-11-27T08:12:01.822Z,1.78
2022-11-27T08:14:28.951Z,1.77
2022-11-27T08:16:55.756Z,1.89
2022-11-27T08:19:22.810Z,1.92
2022-11-27T08:21:49.325Z,1.92
2022-11-27T08:24:15.895Z,2.06
2022-11-27T08:26:42.396Z,2.03
2022-11-27T08:29:12.301Z,2.06
2022-11-27T08:31:39.066Z,2.08
2022-11-27T08:34:05.875Z,2.14
2022-11-27T08:36:32.418Z,2.07
2022-11-27T08:38:58.923Z,2.15
2022-11-27T08:41:25.485Z,2.18
2022-11-27T08:43:51.987Z,2.31
2022-11-27T08:46:18.547Z,2.31
2022-11-27T08:48:45.151Z,2.35
2022-11-27T08:51:14.167Z,2.38
2022-11-27T08:53:41.257Z,2.38
2022-11-27T08:56:16.097Z,2.22
2022-11-27T08:58:43.120Z,2.27
2022-11-27T09:01:15.739Z,2.36
2022-11-27T09:03:42.453Z,2.45
2022-11-27T09:06:11.774Z,2.44
2022-11-27T09:08:42.313Z,2.38
2022-11-27T09:11:10.838Z,2.46
2022-11-27T09:13:37.991Z,2.37
2022-11-27T09:16:05.308Z,2.36
2022-11-27T09:18:31.923Z,2.37
2022-11-27T09:21:02.779Z,2.47
2022-11-27T09:23:29.686Z,2.44
2022-11-27T09:26:03.624Z,2.48
2022-11-27T09:28:31.827Z,2.40
2022-11-27T09:31:01.051Z,2.41
2022-11-27T09:33:29.579Z,2.41
2022-11-27T09:35:56.578Z,2.48
2022-11-27T09:38:23.878Z,2.40
2022-11-27T09:40:52.873Z,2.47
2022-11-27T09:43:29.505Z,2.53
2022-11-27T09:46:01.574Z,2.53
2022-11-27T09:48:37.135Z,2.50
2022-11-27T09:51:09.335Z,2.71
2022-11-27T09:53:46.502Z,2.82
2022-11-27T09:56:17.661Z,2.77
2022-11-27T09:58:49.574Z,2.73
2022-11-27T10:01:32.112Z,2.65
2022-11-27T10:04:03.004Z,2.70
2022-11-27T10:06:38.653Z,2.70
2022-11-27T10:09:39.000Z,2.68
2022-11-27T10:12:31.380Z,2.80
2022-11-27T10:15:13.978Z,2.86
2022-11-27T10:17:49.011Z,2.80
2022-11-27T10:20:29.060Z,2.88
2022-11-27T10:23:04.197Z,2.93
2022-11-27T10:25:45.187Z,2.95
2022-11-27T10:28:30.831Z,2.95
2022-11-27T10:31:16.054Z,3.05
2022-11-27T10:33:47.594Z,3.10
2022-11-27T10:36:18.975Z,3.09
2022-11-27T10:38:47.806Z,3.10
2022-11-27T10:41:49.429Z,3.14
2022-11-27T10:44:32.882Z,3.16
2022-11-27T10:47:05.631Z,3.18
2022-11-27T10:49:41.217Z,3.17
2022-11-27T10:52:17.481Z,3.21
2022-11-27T10:54:49.593Z,3.25
2022-11-27T10:57:43.907Z,3.30
2022-11-27T11:00:15.628Z,3.34
2022-11-27T11:02:42.477Z,3.33
2022-11-27T11:06:11.583Z,3.27
2022-11-27T11:08:18.240Z,3.20
2022-11-27T11:10:57.704Z,3.22
2022-11-27T11:13:28.040Z,3.33
2022-11-27T11:16:05.040Z,3.32
2022-11-27T11:18:34.571Z,3.39
2022-11-27T11:21:07.330Z,3.40
2022-11-27T11:23:40.487Z,3.35
2022-11-27T11:26:28.601Z,3.34
2022-11-27T11:28:58.959Z,3.46
2022-11-27T11:31:44.559Z,3.37
2022-11-27T11:34:22.619Z,3.40
2022-11-27T11:37:00.048Z,3.40
2022-11-27T11:39:29.840Z,3.48
2022-11-27T11:41:57.220Z,3.39
2022-11-27T11:44:30.965Z,3.47
2022-11-27T11:46:57.560Z,3.44
2022-11-27T11:49:29.325Z,3.44
2022-11-27T11:51:55.755Z,3.48
2022-11-27T11:55:12.150Z,3.45
2022-11-27T11:57:47.768Z,3.49
2022-11-27T12:00:28.050Z,3.59
2022-11-27T12:03:50.731Z,3.56
2022-11-27T12:06:42.598Z,3.51
2022-11-27T12:09:40.434Z,3.49
2022-11-27T12:12:36.383Z,3.54
2022-11-27T12:15:26.134Z,3.56
2022-11-27T12:18:07.133Z,3.50
2022-11-27T12:20:36.713Z,3.58
2022-11-27T12:23:44.745Z,3.53
2022-11-27T12:26:15.800Z,3.55
2022-11-27T12:28:58.962Z,3.60
2022-11-27T12:31:37.968Z,3.56
2022-11-27T12:34:14.952Z,3.63
2022-11-27T12:37:06.364Z,3.62
2022-11-27T12:40:14.496Z,3.54
2022-11-27T12:43:05.123Z,3.60
2022-11-27T12:45:53.542Z,3.55
2022-11-27T12:48:24.252Z,3.59
2022-11-27T12:50:56.364Z,3.59
2022-11-27T12:53:31.717Z,3.61
2022-11-27T12:56:13.996Z,3.64
2022-11-27T12:58:44.890Z,3.67
2022-11-27T13:01:17.127Z,3.64
2022-11-27T13:03:59.443Z,3.64
2022-11-27T13:06:31.404Z,3.65
2022-11-27T13:09:04.784Z,3.64
2022-11-27T13:11:38.130Z,3.71
2022-11-27T13:14:15.545Z,3.69
2022-11-27T13:17:08.942Z,3.64
2022-11-27T13:19:42.484Z,3.78
2022-11-27T13:22:13.401Z,3.66
2022-11-27T13:24:40.885Z,3.67
2022-11-27T13:27:16.820Z,3.56
2022-11-27T13:29:48.666Z,3.65
2022-11-27T13:32:22.760Z,3.64
2022-11-27T13:34:51.050Z,3.66
2022-11-27T13:37:40.893Z,3.78
2022-11-27T13:40:20.366Z,3.83
2022-11-27T13:42:55.299Z,3.72
2022-11-27T13:45:26.564Z,3.65
2022-11-27T13:47:54.250Z,3.60
2022-11-27T13:50:26.940Z,3.61
2022-11-27T13:53:00.204Z,3.77
2022-11-27T13:55:30.249Z,3.73
2022-11-27T13:57:59.576Z,3.86
2022-11-27T14:00:38.709Z,3.82
2022-11-27T14:03:06.723Z,3.94
2022-11-27T14:05:39.448Z,3.90
2022-11-27T14:08:24.171Z,3.81
2022-11-27T14:11:00.882Z,3.84
2022-11-27T14:13:36.475Z,3.79
2022-11-27T14:16:05.079Z,3.78
2022-11-27T14:18:31.829Z,3.76
2022-11-27T14:21:02.324Z,3.80
2022-11-27T14:23:36.780Z,3.79
2022-11-27T14:26:19.941Z,3.82
2022-11-27T14:28:51.612Z,3.86
2022-11-27T14:31:36.486Z,3.70
2022-11-27T14:34:24.255Z,3.65
2022-11-27T14:36:52.851Z,3.63
2022-11-27T14:39:31.302Z,3.70
2022-11-27T14:42:03.021Z,3.73
2022-11-27T14:44:31.729Z,3.76
2022-11-27T14:47:02.333Z,3.74
2022-11-27T14:49:31.641Z,3.77
2022-11-27T14:52:03.314Z,3.72
2022-11-27T14:54:36.872Z,3.73
2022-11-27T14:57:05.253Z,3.73
2022-11-27T14:59:32.477Z,3.74
2022-11-27T15:02:15.558Z,3.69
2022-11-27T15:04:44.217Z,3.66
2022-11-27T15:07:33.065Z,3.67
2022-11-27T15:10:07.582Z,3.68
2022-11-27T15:12:46.244Z,3.64
2022-11-27T15:15:27.624Z,3.65
2022-11-27T15:18:00.599Z,3.63
2022-11-27T15:20:35.640Z,3.62
2022-11-27T15:23:02.749Z,3.47
2022-11-27T15:25:35.271Z,3.44
2022-11-27T15:28:02.307Z,3.38
2022-11-27T15:30:29.400Z,3.44
2022-11-27T15:32:56.195Z,3.37
2022-11-27T15:35:25.237Z,3.41
2022-11-27T15:37:52.887Z,3.39
2022-11-27T15:40:25.010Z,3.44
2022-11-27T15:42:51.612Z,3.47
2022-11-27T15:45:18.103Z,3.48
2022-11-27T15:47:45.203Z,3.53
2022-11-27T15:50:16.316Z,3.55
2022-11-27T15:52:43.306Z,3.46
2022-11-27T15:55:17.777Z,3.43
2022-11-27T15:57:45.088Z,3.43
2022-11-27T16:00:12.018Z,3.45
2022-11-27T16:02:39.681Z,3.40
2022-11-27T16:05:07.735Z,3.31
2022-11-27T16:07:34.528Z,3.39
2022-11-27T16:10:01.904Z,3.36
2022-11-27T16:12:28.376Z,3.33
2022-11-27T16:14:55.077Z,3.32
2022-11-27T16:17:21.697Z,3.27
2022-11-27T16:19:48.155Z,3.39
2022-11-27T16:22:15.319Z,3.44
2022-11-27T16:24:42.115Z,3.32
2022-11-27T16:27:08.791Z,3.29
2022-11-27T16:29:35.411Z,3.26
2022-11-27T16:32:02.277Z,3.30
2022-11-27T16:34:28.886Z,3.25
2022-11-27T16:36:55.444Z,3.25
2022-11-27T16:39:22.005Z,3.21
2022-11-27T16:41:48.515Z,3.19
2022-11-27T16:44:15.686Z,3.20
2022-11-27T16:46:44.620Z,3.18
2022-11-27T16:49:11.952Z,3.13
2022-11-27T16:51:39.444Z,3.14
2022-11-27T16:54:09.708Z,3.07
2022-11-27T16:56:38.676Z,3.03
2022-11-27T16:59:13.741Z,3.04
2022-11-27T17:01:42.298Z,3.09
2022-11-27T17:04:14.682Z,3.09
2022-11-27T17:06:41.141Z,3.09
2022-11-27T17:09:08.284Z,3.14
2022-11-27T17:11:37.679Z,3.12
2022-11-27T17:14:06.900Z,3.09
2022-11-27T17:16:34.613Z,3.14
2022-11-27T17:19:01.454Z,3.04
2022-11-27T17:21:31.373Z,2.98
2022-11-27T17:24:00.458Z,2.99
2022-11-27T17:26:30.100Z,3.01
2022-11-27T17:28:57.348Z,3.04
2022-11-27T17:31:26.903Z,3.02
2022-11-27T17:33:57.140Z,3.01
2022-11-27T17:36:25.379Z,2.94
2022-11-27T17:38:52.191Z,2.89
2022-11-27T17:41:19.175Z,2.94
2022-11-27T17:43:45.759Z,2.86
2022-11-27T17:46:17.371Z,2.89
2022-11-27T17:48:44.549Z,2.90
2022-11-27T17:51:11.194Z,2.94
2022-11-27T17:53:38.149Z,2.95
2022-11-27T17:56:06.859Z,2.95
2022-11-27T17:58:34.077Z,2.99
2022-11-27T18:01:01.420Z,2.96
2022-11-27T18:03:29.370Z,2.98
2022-11-27T18:05:56.909Z,2.96
2022-11-27T18:08:24.041Z,2.97
2022-11-27T18:10:51.149Z,3.02
2022-11-27T18:13:17.619Z,3.09
2022-11-27T18:15:44.138Z,3.07
2022-11-27T18:18:11.248Z,3.13
2022-11-27T18:20:37.771Z,3.12
2022-11-27T18:23:04.782Z,3.10
2022-11-27T18:25:31.720Z,3.11
2022-11-27T18:27:58.783Z,3.10
2022-11-27T18:30:25.797Z,3.19
2022-11-27T18:32:52.272Z,3.18
2022-11-27T18:35:18.999Z,3.23
2022-11-27T18:37:45.530Z,3.30
2022-11-27T18:40:12.946Z,3.36
2022-11-27T18:42:39.411Z,3.36
2022-11-27T18:45:12.497Z,3.43
2022-11-27T18:47:46.842Z,3.40
2022-11-27T18:50:13.353Z,3.42
2022-11-27T18:52:39.912Z,3.41
2022-11-27T18:55:06.848Z,3.46
2022-11-27T18:57:33.383Z,3.44
2022-11-27T18:59:59.903Z,3.44
2022-11-27T19:02:26.463Z,3.48
2022-11-27T19:04:53.058Z,3.47
2022-11-27T19:07:19.643Z,3.45
2022-11-27T19:09:46.249Z,3.47
2022-11-27T19:12:13.858Z,3.46
2022-11-27T19:14:40.636Z,3.45
2022-11-27T19:17:07.284Z,3.50
2022-11-27T19:19:54.413Z,3.50
2022-11-27T19:22:21.383Z,3.52
2022-11-27T19:24:48.008Z,3.52
2022-11-27T19:27:14.577Z,3.33
2022-11-27T19:29:41.505Z,3.33
2022-11-27T19:32:08.348Z,3.44
2022-11-27T19:34:34.959Z,3.49
2022-11-27T19:37:01.599Z,3.45
2022-11-27T19:39:28.835Z,3.39
2022-11-27T19:41:55.477Z,3.48
2022-11-27T19:44:22.030Z,3.49
2022-11-27T19:46:48.605Z,3.44
2022-11-27T19:49:17.936Z,3.47
2022-11-27T19:51:44.706Z,3.45
2022-11-27T19:54:13.290Z,3.35
2022-11-27T19:56:40.786Z,3.30
2022-11-27T19:59:08.618Z,3.33
2022-11-27T20:01:37.588Z,3.45
2022-11-27T20:04:04.640Z,3.40
2022-11-27T20:06:32.365Z,3.43
2022-11-27T20:09:02.061Z,3.45
2022-11-27T20:11:34.266Z,3.39
2022-11-27T20:14:02.291Z,3.42
2022-11-27T20:16:28.878Z,3.40
2022-11-27T20:18:55.826Z,3.41
2022-11-27T20:21:24.673Z,3.40
2022-11-27T20:23:52.725Z,3.46
2022-11-27T20:26:23.121Z,3.53
2022-11-27T20:28:50.351Z,3.45
2022-11-27T20:31:22.274Z,3.48
2022-11-27T20:33:48.951Z,3.48
2022-11-27T20:36:17.467Z,3.45
2022-11-27T20:38:44.179Z,3.47
2022-11-27T20:41:13.444Z,3.49
2022-11-27T20:43:40.669Z,3.38
2022-11-27T20:46:10.426Z,3.48
2022-11-27T20:48:37.084Z,3.45
2022-11-27T20:51:13.763Z,3.49
2022-11-27T20:53:43.428Z,3.51
2022-11-27T20:56:11.752Z,3.46
2022-11-27T20:58:40.344Z,3.45
2022-11-27T21:01:19.688Z,3.51
2022-11-27T21:03:48.796Z,3.51
2022-11-27T21:06:16.555Z,3.54
2022-11-27T21:08:43.352Z,3.55
2022-11-27T21:11:14.186Z,3.61
2022-11-27T21:13:40.687Z,3.64
2022-11-27T21:16:09.701Z,3.63
2022-11-27T21:18:36.552Z,3.64
2022-11-27T21:21:11.873Z,3.68
2022-11-27T21:23:39.990Z,3.65
2022-11-27T21:26:07.790Z,3.69
2022-11-27T21:28:34.772Z,3.64
2022-11-27T21:31:17.043Z,3.65
2022-11-27T21:33:47.015Z,3.67
2022-11-27T21:36:14.450Z,3.61
2022-11-27T21:38:41.119Z,3.65
2022-11-27T21:41:08.332Z,3.67
2022-11-27T21:43:34.972Z,3.64
2022-11-27T21:46:09.534Z,3.62
2022-11-27T21:48:36.102Z,3.60
2022-11-27T21:51:03.902Z,3.59
2022-11-27T21:53:31.466Z,3.54
2022-11-27T21:55:58.432Z,3.51
2022-11-27T21:58:25.434Z,3.57
2022-11-27T22:00:52.199Z,3.61
2022-11-27T22:03:18.762Z,3.56
2022-11-27T22:05:45.254Z,3.54
2022-11-27T22:08:11.775Z,3.28
2022-11-27T22:10:40.606Z,3.37
2022-11-27T22:13:07.073Z,3.50
2022-11-27T22:15:36.660Z,3.45
2022-11-27T22:18:03.174Z,3.44
2022-11-27T22:20:29.717Z,3.12
2022-11-27T22:22:56.637Z,3.09
2022-11-27T22:25:23.118Z,3.10
2022-11-27T22:27:49.622Z,3.11
2022-11-27T22:30:16.362Z,3.15
2022-11-27T22:32:42.928Z,3.20
2022-11-27T22:35:09.390Z,3.33
2022-11-27T22:37:35.922Z,3.12
2022-11-27T22:40:02.500Z,3.14
2022-11-27T22:42:29.093Z,3.14
2022-11-27T22:44:55.564Z,3.16
2022-11-27T22:47:22.133Z,3.27
2022-11-27T22:49:48.648Z,3.24
2022-11-27T22:52:15.144Z,3.31
2022-11-27T22:54:41.888Z,3.34
2022-11-27T22:57:08.490Z,3.33
2022-11-27T22:59:35.207Z,3.38
2022-11-27T23:02:03.281Z,3.47
2022-11-27T23:04:29.931Z,3.41
2022-11-27T23:06:56.471Z,3.40
2022-11-27T23:09:22.967Z,3.35
2022-11-27T23:11:49.984Z,3.17
2022-11-27T23:14:16.757Z,3.10
2022-11-27T23:16:43.676Z,2.87
2022-11-27T23:19:11.178Z,3.01
2022-11-27T23:21:38.855Z,3.10
2022-11-27T23:24:06.952Z,2.99
2022-11-27T23:26:33.955Z,2.90
2022-11-27T23:29:00.480Z,2.90
2022-11-27T23:31:31.501Z,3.10
2022-11-27T23:34:01.710Z,3.02
2022-11-27T23:36:29.287Z,3.08
2022-11-27T23:38:56.276Z,3.09
2022-11-27T23:41:24.507Z,2.95
2022-11-27T23:43:52.586Z,2.90
2022-11-27T23:46:23.291Z,2.89
2022-11-27T23:48:49.893Z,3.06
2022-11-27T23:51:23.573Z,3.18
2022-11-27T23:53:50.496Z,3.15
2022-11-27T23:56:21.242Z,3.25
2022-11-27T23:58:48.312Z,3.19
